Alakanuk, Alaska
Current Conditions -  °F | °C
As of 3:56 PM on Thursday 30 Oct 2014 (Local Time) from PAEM Reporting Station
Clear Clear  
Wind Chill: 17°   Ceiling: Unl
Heat Index: 27°   Visibility: 10mi
Dew Point: 18°   Wind: 10mph
Humidity: 69%   Direction: 40°NE
Pressure: 29.85"   Gusts: NA
Location:  62.69°N, 164.62°W
Report Text: PAEM 302356Z 04009KT 10SM CLR M03/M08 A2985 RMK AO1 11030 21040 410101040 57017
Loading
Personal Weather Stations






























Interactive Weather Map
Tropical Storm Tracking
New forecast layout! Learn more

10-Day Weather Forecast

Advertisements
Track Severe Weather on mobile